Time;durP1;ratioP1;P1;durP2;ratioP2;P2;SDS_P1;SDS_P2;PMS_P1;PMS_P2;Temp;Humidity;BMP_temperature;BMP_pressure;BME280_temperature;BME280_humidity;BME280_pressure;Samples;Min_cycle;Max_cycle;Signal;HPM_P1;HPM_P2
2023/10/23 00:01:13;;;;;;;7.60;2.90;;;8.60;99.90;;;;;;5037158;28;20885;-73
2023/10/23 00:03:58;;;;;;;4.83;2.43;;;8.60;99.90;;;;;;5048467;28;20438;-73
2023/10/23 00:06:44;;;;;;;5.00;2.33;;;8.60;99.90;;;;;;5050299;28;20468;-73
2023/10/23 00:09:30;;;;;;;6.17;2.60;;;8.60;99.90;;;;;;5055348;28;20839;-73
2023/10/23 00:12:15;;;;;;;9.20;2.40;;;8.50;99.90;;;;;;5048864;28;20420;-73
2023/10/23 00:15:04;;;;;;;5.17;2.30;;;8.40;99.90;;;;;;5045669;28;20657;-73
2023/10/23 00:17:49;;;;;;;4.77;2.27;;;8.30;99.90;;;;;;5049564;28;21065;-73
2023/10/23 00:20:35;;;;;;;14.23;2.33;;;8.30;99.90;;;;;;5043175;28;20850;-73
2023/10/23 00:23:21;;;;;;;6.20;2.00;;;8.20;99.90;;;;;;5048985;28;20845;-73
2023/10/23 00:26:06;;;;;;;3.73;2.10;;;8.30;99.90;;;;;;5049407;28;20808;-73
2023/10/23 00:28:52;;;;;;;6.03;2.00;;;8.30;99.90;;;;;;5048404;28;20542;-73
2023/10/23 00:31:39;;;;;;;4.53;2.20;;;8.30;99.90;;;;;;5044013;28;20565;-73
2023/10/23 00:34:24;;;;;;;7.73;3.07;;;8.40;99.90;;;;;;5049957;28;20812;-73
2023/10/23 00:37:10;;;;;;;4.37;2.27;;;8.60;99.90;;;;;;5048943;28;21099;-72
2023/10/23 00:39:56;;;;;;;4.80;2.33;;;8.60;99.90;;;;;;5045575;28;20543;-73
2023/10/23 00:42:41;;;;;;;6.37;2.60;;;8.60;99.90;;;;;;5044914;28;20484;-73
2023/10/23 00:45:27;;;;;;;5.60;2.30;;;8.50;99.90;;;;;;5043692;28;20441;-73
2023/10/23 00:48:14;;;;;;;11.83;2.60;;;8.40;99.90;;;;;;5047148;28;20450;-73
2023/10/23 00:51:02;;;;;;;9.10;3.00;;;8.30;99.90;;;;;;5045494;28;20987;-73
2023/10/23 00:53:47;;;;;;;7.80;3.30;;;8.30;99.90;;;;;;5048699;28;20976;-73
2023/10/23 00:56:34;;;;;;;5.10;2.97;;;8.30;99.90;;;;;;5047808;28;20434;-73
2023/10/23 00:59:21;;;;;;;5.47;3.10;;;8.30;99.90;;;;;;5048946;28;21043;-73
2023/10/23 01:02:07;;;;;;;8.47;2.80;;;8.30;99.90;;;;;;5050496;28;20460;-72
2023/10/23 01:04:54;;;;;;;4.77;2.30;;;8.30;99.90;;;;;;5044486;28;20444;-73
2023/10/23 01:07:40;;;;;;;9.23;2.93;;;8.30;99.90;;;;;;5043132;28;20968;-73
2023/10/23 01:10:26;;;;;;;7.47;2.93;;;8.20;99.90;;;;;;5047814;28;20476;-73
2023/10/23 01:13:12;;;;;;;6.77;2.47;;;8.10;99.90;;;;;;5050482;28;20424;-73
2023/10/23 01:15:58;;;;;;;4.33;2.47;;;8.00;99.90;;;;;;5047593;28;21921;-73
2023/10/23 01:18:44;;;;;;;7.40;2.40;;;8.00;99.90;;;;;;5047301;28;20436;-73
2023/10/23 01:21:31;;;;;;;13.73;2.83;;;8.20;99.90;;;;;;5050084;28;20448;-73
2023/10/23 01:24:19;;;;;;;11.40;2.70;;;8.20;99.90;;;;;;5044688;28;20439;-73
2023/10/23 01:27:06;;;;;;;4.63;2.40;;;8.30;99.90;;;;;;5049120;28;20450;-73
2023/10/23 01:29:52;;;;;;;6.13;2.27;;;8.30;99.90;;;;;;5047926;28;20472;-73
2023/10/23 01:32:38;;;;;;;5.30;2.40;;;8.30;99.90;;;;;;5050218;28;20541;-73
2023/10/23 01:35:24;;;;;;;5.20;2.47;;;8.40;99.90;;;;;;5049013;28;20451;-73
2023/10/23 01:38:10;;;;;;;12.20;3.43;;;8.30;99.90;;;;;;5045254;28;20419;-73
2023/10/23 01:40:55;;;;;;;4.60;2.50;;;8.10;99.90;;;;;;5042757;28;20450;-73
2023/10/23 01:43:42;;;;;;;12.30;2.70;;;8.00;99.90;;;;;;5047942;28;20445;-73
2023/10/23 01:46:27;;;;;;;2.90;2.00;;;8.00;99.90;;;;;;5046396;28;20481;-73
2023/10/23 01:49:13;;;;;;;11.20;2.87;;;7.90;99.90;;;;;;5044074;28;20414;-73
2023/10/23 01:51:59;;;;;;;11.80;3.10;;;7.80;99.90;;;;;;5046768;28;20459;-73
2023/10/23 01:54:45;;;;;;;8.70;2.13;;;7.80;99.90;;;;;;5045691;28;20444;-73
2023/10/23 01:57:31;;;;;;;6.60;2.30;;;7.70;99.90;;;;;;5046206;28;20600;-73
2023/10/23 02:00:18;;;;;;;5.70;2.30;;;7.60;99.90;;;;;;5048134;28;20535;-73
2023/10/23 02:03:04;;;;;;;4.60;2.00;;;7.50;99.90;;;;;;5046509;28;20451;-73
2023/10/23 02:05:49;;;;;;;3.53;1.87;;;7.40;99.90;;;;;;5045516;28;20456;-73
2023/10/23 02:08:35;;;;;;;8.13;2.60;;;7.20;99.90;;;;;;5047664;28;20437;-73
2023/10/23 02:11:21;;;;;;;6.27;2.90;;;7.30;99.90;;;;;;5047809;28;20473;-73
2023/10/23 02:14:06;;;;;;;4.47;2.43;;;7.40;99.90;;;;;;5038259;28;20426;-73
2023/10/23 02:16:53;;;;;;;3.97;2.23;;;7.50;99.90;;;;;;5047057;28;20496;-73
2023/10/23 02:19:39;;;;;;;4.67;2.50;;;7.60;99.90;;;;;;5045311;28;20484;-73
2023/10/23 02:22:25;;;;;;;7.87;3.37;;;7.60;99.90;;;;;;5044084;28;20448;-73
2023/10/23 02:25:10;;;;;;;8.20;3.53;;;7.60;99.90;;;;;;5047449;28;20519;-73
2023/10/23 02:27:56;;;;;;;5.83;3.03;;;7.70;99.90;;;;;;5044979;28;20463;-73
2023/10/23 02:30:42;;;;;;;6.20;2.93;;;7.80;99.90;;;;;;5044481;28;20491;-73
2023/10/23 02:33:29;;;;;;;7.53;2.67;;;7.90;99.90;;;;;;5048681;28;20977;-73
2023/10/23 02:36:15;;;;;;;8.53;3.73;;;7.80;99.90;;;;;;5039242;28;20643;-73
2023/10/23 02:39:00;;;;;;;9.40;4.03;;;7.90;99.90;;;;;;5038944;28;20738;-73
2023/10/23 02:41:46;;;;;;;12.37;3.60;;;8.00;99.90;;;;;;5041926;28;20437;-73
2023/10/23 02:44:32;;;;;;;10.27;4.83;;;8.00;99.90;;;;;;5044461;28;20465;-73
2023/10/23 02:47:18;;;;;;;21.37;6.00;;;8.00;99.90;;;;;;5042388;28;20526;-73
2023/10/23 02:50:05;;;;;;;13.50;5.40;;;8.20;99.90;;;;;;5046623;28;20485;-73
2023/10/23 02:52:50;;;;;;;11.53;4.30;;;8.30;99.90;;;;;;5046473;28;20456;-73
2023/10/23 02:55:36;;;;;;;4.80;3.60;;;8.20;99.90;;;;;;5046003;28;20987;-73
2023/10/23 02:58:22;;;;;;;14.30;4.53;;;8.10;99.90;;;;;;5051127;28;20959;-73
2023/10/23 03:01:19;;;;;;;8.53;4.23;;;8.00;99.90;;;;;;5053366;28;20583;-73
2023/10/23 03:04:05;;;;;;;8.40;3.83;;;7.90;99.90;;;;;;5047479;28;20449;-73
2023/10/23 03:06:52;;;;;;;9.70;4.00;;;7.90;99.90;;;;;;5052164;28;20465;-73
2023/10/23 03:09:37;;;;;;;11.33;4.80;;;8.00;99.90;;;;;;5055016;28;20429;-73
2023/10/23 03:12:23;;;;;;;15.73;5.00;;;8.10;99.90;;;;;;5056908;28;20447;-73
2023/10/23 03:15:09;;;;;;;13.27;5.07;;;8.10;99.90;;;;;;5053546;28;20562;-73
2023/10/23 03:17:55;;;;;;;17.40;4.53;;;8.00;99.90;;;;;;5046625;28;20457;-73
2023/10/23 03:20:41;;;;;;;13.90;5.50;;;8.00;99.90;;;;;;5052520;28;20443;-73
2023/10/23 03:23:28;;;;;;;11.53;4.70;;;8.00;99.90;;;;;;5049887;28;20566;-73
2023/10/23 03:26:14;;;;;;;16.53;6.00;;;8.00;99.90;;;;;;5053698;28;20624;-73
2023/10/23 03:28:59;;;;;;;9.13;4.93;;;7.90;99.90;;;;;;5050904;28;20450;-73
2023/10/23 03:31:45;;;;;;;12.97;5.33;;;7.90;99.90;;;;;;5049653;28;20522;-73
2023/10/23 03:34:31;;;;;;;16.03;5.10;;;8.00;99.90;;;;;;5047042;28;20447;-73
2023/10/23 03:37:16;;;;;;;18.17;5.80;;;7.90;99.90;;;;;;5052748;28;20868;-73
2023/10/23 03:40:04;;;;;;;20.63;4.87;;;7.80;99.90;;;;;;5047604;28;20578;-73
2023/10/23 03:42:51;;;;;;;14.27;4.67;;;7.70;99.90;;;;;;5050810;28;20502;-73
2023/10/23 03:45:37;;;;;;;18.50;5.40;;;7.50;99.90;;;;;;5052320;28;20453;-73
2023/10/23 03:48:22;;;;;;;7.97;4.10;;;7.50;99.90;;;;;;5052036;28;20452;-73
2023/10/23 03:51:08;;;;;;;9.20;5.00;;;7.60;99.90;;;;;;5050908;28;20585;-73
2023/10/23 03:53:54;;;;;;;14.40;5.60;;;7.70;99.90;;;;;;5048158;28;20452;-73
2023/10/23 03:56:40;;;;;;;17.07;4.63;;;7.70;99.90;;;;;;5041026;28;20460;-73
2023/10/23 03:59:26;;;;;;;14.10;5.43;;;7.70;99.90;;;;;;5052300;28;20966;-73
2023/10/23 04:02:11;;;;;;;8.83;4.47;;;7.60;99.90;;;;;;5055736;28;20449;-73
2023/10/23 04:04:57;;;;;;;8.00;4.73;;;7.60;99.90;;;;;;5045095;28;20432;-73
2023/10/23 04:07:43;;;;;;;8.47;4.83;;;7.50;99.90;;;;;;5040731;28;20836;-73
2023/10/23 04:10:28;;;;;;;8.80;4.97;;;7.40;99.90;;;;;;5043301;28;20469;-73
2023/10/23 04:13:16;;;;;;;11.33;5.90;;;7.40;99.90;;;;;;5049691;28;20466;-73
2023/10/23 04:18:38;;;;;;;21.33;5.50;;;7.20;99.90;;;;;;5053168;28;20463;-72
2023/10/23 04:21:24;;;;;;;8.43;4.67;;;7.00;99.90;;;;;;5059889;28;20842;-71
2023/10/23 04:24:10;;;;;;;11.17;5.37;;;7.20;99.90;;;;;;5049390;28;20900;-73
2023/10/23 04:26:56;;;;;;;9.23;4.77;;;7.20;99.90;;;;;;5049659;28;20863;-70
2023/10/23 04:29:43;;;;;;;8.57;4.70;;;7.10;99.90;;;;;;5041329;28;20453;-71
2023/10/23 04:32:29;;;;;;;7.13;4.77;;;7.10;99.90;;;;;;5049707;28;20438;-70
2023/10/23 04:35:14;;;;;;;14.00;4.83;;;7.00;99.90;;;;;;5067096;28;20559;-70
2023/10/23 04:37:59;;;;;;;5.90;3.87;;;7.00;99.90;;;;;;5063566;28;20469;-74
2023/10/23 04:40:45;;;;;;;6.87;4.30;;;7.00;99.90;;;;;;5055551;28;20510;-73
2023/10/23 04:43:33;;;;;;;6.00;4.10;;;6.80;99.90;;;;;;5056417;28;20795;-73
2023/10/23 04:46:20;;;;;;;6.60;4.67;;;6.70;99.90;;;;;;5062196;28;21192;-72
2023/10/23 04:49:06;;;;;;;4.90;3.90;;;6.70;99.90;;;;;;5050291;28;20813;-74
2023/10/23 04:51:52;;;;;;;8.60;4.13;;;6.80;99.90;;;;;;5052565;28;20475;-74
2023/10/23 04:54:38;;;;;;;6.47;3.30;;;7.00;99.90;;;;;;5051425;28;20459;-71
2023/10/23 04:57:23;;;;;;;8.13;3.50;;;7.10;99.90;;;;;;5038788;28;20540;-70
2023/10/23 05:00:11;;;;;;;6.50;3.80;;;7.30;99.90;;;;;;5049839;28;20504;-71
2023/10/23 05:02:58;;;;;;;6.55;3.83;;;7.40;99.90;;;;;;5049351;28;20500;-71
2023/10/23 05:05:47;;;;;;;12.43;4.10;;;7.40;99.90;;;;;;5043861;28;20217;-71
2023/10/23 05:08:33;;;;;;;7.40;4.73;;;7.40;99.90;;;;;;5057147;28;20443;-71
2023/10/23 05:11:19;;;;;;;15.40;4.10;;;7.30;99.90;;;;;;5046683;28;20526;-71
2023/10/23 05:14:04;;;;;;;14.43;5.13;;;7.20;99.90;;;;;;5056410;28;20447;-71
2023/10/23 05:16:50;;;;;;;9.18;4.45;;;7.10;99.90;;;;;;5067695;28;20459;-70
2023/10/23 05:19:37;;;;;;;10.80;4.33;;;7.00;99.90;;;;;;5050578;28;20213;-73
2023/10/23 05:22:22;;;;;;;13.85;3.92;;;6.80;99.90;;;;;;5049261;28;20598;-74
2023/10/23 05:25:09;;;;;;;7.37;3.63;;;6.80;99.90;;;;;;5045081;28;20296;-73
2023/10/23 05:27:54;;;;;;;9.30;3.30;;;6.80;99.90;;;;;;5054587;28;20467;-75
2023/10/23 05:30:40;;;;;;;6.10;3.60;;;6.80;99.90;;;;;;5044896;28;20542;-73
2023/10/23 05:33:26;;;;;;;7.13;4.70;;;7.00;99.90;;;;;;5045344;28;20517;-73
2023/10/23 05:36:13;;;;;;;7.63;3.97;;;7.10;99.90;;;;;;5050235;28;20481;-73
2023/10/23 05:38:58;;;;;;;5.85;3.70;;;7.20;99.90;;;;;;5049494;28;20528;-73
2023/10/23 05:41:44;;;;;;;8.03;4.80;;;7.20;99.90;;;;;;5040383;28;20684;-73
2023/10/23 05:44:29;;;;;;;15.27;6.70;;;7.20;99.90;;;;;;5039572;28;20513;-71
2023/10/23 05:47:15;;;;;;;6.23;3.97;;;7.40;99.90;;;;;;5046190;28;20473;-71
2023/10/23 05:50:01;;;;;;;8.07;4.13;;;7.50;99.90;;;;;;5061067;28;20457;-71
2023/10/23 05:52:48;;;;;;;11.50;4.10;;;7.60;99.90;;;;;;5065849;28;20947;-70
2023/10/23 05:55:35;;;;;;;8.50;4.47;;;7.50;99.90;;;;;;5039109;28;20273;-71
2023/10/23 05:58:20;;;;;;;8.57;4.03;;;7.40;99.90;;;;;;5066589;28;20447;-70
2023/10/23 06:01:06;;;;;;;5.23;3.67;;;7.30;99.90;;;;;;5053696;28;20567;-70
2023/10/23 06:03:52;;;;;;;16.80;3.83;;;7.40;99.90;;;;;;5048891;28;20435;-70
2023/10/23 06:06:38;;;;;;;7.33;4.20;;;7.30;99.90;;;;;;5053495;28;20455;-73
2023/10/23 06:09:28;;;;;;;4.60;3.60;;;7.00;99.90;;;;;;5040767;28;21075;-73
2023/10/23 06:12:14;;;;;;;4.90;3.53;;;7.00;99.90;;;;;;5039380;28;20616;-73
2023/10/23 06:14:59;;;;;;;14.27;3.90;;;6.90;99.90;;;;;;5060491;28;20518;-71
2023/10/23 06:17:45;;;;;;;4.73;3.83;;;7.00;99.90;;;;;;5046944;28;20537;-73
2023/10/23 06:20:31;;;;;;;7.47;4.03;;;6.90;99.90;;;;;;5046249;28;20439;-70
2023/10/23 06:23:17;;;;;;;6.57;3.90;;;7.00;99.90;;;;;;5056531;28;20413;-70
2023/10/23 06:26:04;;;;;;;6.17;4.00;;;7.10;99.90;;;;;;5058013;28;20595;-70
2023/10/23 06:28:50;;;;;;;5.27;4.20;;;7.20;99.90;;;;;;5045699;28;20457;-70
2023/10/23 06:31:36;;;;;;;6.60;3.70;;;7.30;99.90;;;;;;5030823;28;20485;-70
2023/10/23 06:34:21;;;;;;;6.17;4.23;;;7.30;99.90;;;;;;5047534;28;20450;-70
2023/10/23 06:37:07;;;;;;;5.97;3.70;;;7.30;99.90;;;;;;5054112;28;21022;-71
2023/10/23 06:39:52;;;;;;;11.30;4.23;;;7.30;99.90;;;;;;5040285;28;20762;-71
2023/10/23 06:42:39;;;;;;;12.03;3.53;;;7.30;99.90;;;;;;5041472;28;20990;-70
2023/10/23 06:45:25;;;;;;;10.20;3.20;;;7.30;99.90;;;;;;5036565;28;20484;-71
2023/10/23 06:48:11;;;;;;;3.83;2.70;;;7.10;99.90;;;;;;5060913;28;20989;-73
2023/10/23 06:50:57;;;;;;;5.20;3.30;;;7.10;99.90;;;;;;5065536;28;20447;-73
2023/10/23 06:53:42;;;;;;;5.67;3.73;;;7.20;99.90;;;;;;5038229;28;20214;-72
2023/10/23 06:56:28;;;;;;;6.97;4.20;;;7.20;99.90;;;;;;5038818;28;20510;-72
2023/10/23 06:59:15;;;;;;;6.67;4.33;;;7.20;99.90;;;;;;5047243;28;22349;-73
2023/10/23 07:02:01;;;;;;;7.23;3.90;;;7.30;99.90;;;;;;5057659;28;20441;-72
2023/10/23 07:04:47;;;;;;;5.80;3.90;;;7.40;99.90;;;;;;5059878;28;20427;-72
2023/10/23 07:07:33;;;;;;;4.33;3.20;;;7.40;99.90;;;;;;5064923;28;20544;-72
2023/10/23 07:10:18;;;;;;;4.90;3.70;;;7.50;99.90;;;;;;5066461;28;20437;-72
2023/10/23 07:13:04;;;;;;;4.80;3.57;;;7.50;99.90;;;;;;5058772;28;20626;-72
2023/10/23 07:15:51;;;;;;;6.27;4.00;;;7.50;99.90;;;;;;5038557;28;20433;-73
2023/10/23 07:18:37;;;;;;;7.77;4.70;;;7.50;99.90;;;;;;5035800;28;20456;-73
2023/10/23 07:21:25;;;;;;;7.70;4.73;;;7.50;99.90;;;;;;5049175;28;20588;-73
2023/10/23 07:24:11;;;;;;;8.60;5.07;;;7.50;99.90;;;;;;5048401;28;20457;-74
2023/10/23 07:26:57;;;;;;;6.30;4.90;;;7.60;99.90;;;;;;5040916;28;20472;-72
2023/10/23 07:29:43;;;;;;;7.33;4.93;;;7.50;99.90;;;;;;5045112;28;20453;-73
2023/10/23 07:32:30;;;;;;;7.80;4.77;;;7.60;99.90;;;;;;5043754;28;20467;-73
2023/10/23 07:35:16;;;;;;;6.82;4.38;;;7.70;99.90;;;;;;5046863;28;20830;-73
2023/10/23 07:38:01;;;;;;;11.27;4.80;;;7.80;99.90;;;;;;5036945;28;20373;-73
2023/10/23 07:40:47;;;;;;;6.23;5.07;;;7.80;99.90;;;;;;5050406;28;20452;-73
2023/10/23 07:43:33;;;;;;;6.67;5.03;;;7.90;99.90;;;;;;5046618;28;20468;-73
2023/10/23 07:46:19;;;;;;;6.13;4.17;;;8.00;99.90;;;;;;5051657;28;20565;-73
2023/10/23 07:49:06;;;;;;;4.77;4.00;;;8.00;99.90;;;;;;5051565;28;20453;-73
2023/10/23 07:51:53;;;;;;;4.37;3.40;;;8.10;99.90;;;;;;5046607;28;20893;-73
2023/10/23 07:54:38;;;;;;;5.10;3.67;;;8.20;99.90;;;;;;5051891;28;20813;-73
2023/10/23 07:57:24;;;;;;;5.50;3.80;;;8.20;99.90;;;;;;5050010;28;20805;-73
2023/10/23 08:00:14;;;;;;;6.00;3.57;;;8.30;99.90;;;;;;5049703;28;20843;-73
2023/10/23 08:03:00;;;;;;;4.97;3.10;;;8.30;99.90;;;;;;5047197;28;20443;-70
2023/10/23 08:05:47;;;;;;;4.20;2.90;;;8.40;99.90;;;;;;5045713;28;20433;-71
2023/10/23 08:08:35;;;;;;;6.43;3.70;;;8.40;99.90;;;;;;5050541;28;20456;-71
2023/10/23 08:11:20;;;;;;;6.77;3.30;;;8.50;99.90;;;;;;5043279;28;20447;-71
2023/10/23 08:14:06;;;;;;;4.17;3.10;;;8.50;99.90;;;;;;5063905;28;20981;-71
2023/10/23 08:16:52;;;;;;;7.30;3.20;;;8.60;99.90;;;;;;5040187;28;20480;-71
2023/10/23 08:19:37;;;;;;;6.43;3.80;;;8.70;99.90;;;;;;5043125;28;20444;-71
2023/10/23 08:22:24;;;;;;;7.93;3.60;;;8.70;99.90;;;;;;5041104;28;20458;-71
2023/10/23 08:25:10;;;;;;;7.93;3.87;;;8.80;99.90;;;;;;5045435;28;20444;-71
2023/10/23 08:27:56;;;;;;;5.37;3.53;;;8.90;99.90;;;;;;5063652;28;20513;-71
2023/10/23 08:30:41;;;;;;;4.90;3.10;;;9.10;99.90;;;;;;5045383;28;20490;-71
2023/10/23 08:33:27;;;;;;;4.97;3.77;;;9.20;99.90;;;;;;5043743;28;21008;-71
2023/10/23 08:36:13;;;;;;;5.30;3.57;;;9.30;99.90;;;;;;5054536;28;20445;-72
2023/10/23 08:39:00;;;;;;;11.60;4.57;;;9.40;99.90;;;;;;5042214;28;20561;-71
2023/10/23 08:41:45;;;;;;;9.20;3.80;;;9.50;99.90;;;;;;5055430;28;20445;-71
2023/10/23 08:44:31;;;;;;;8.37;5.57;;;9.60;99.90;;;;;;5033377;28;21097;-71
2023/10/23 08:47:17;;;;;;;7.10;4.80;;;9.80;99.90;;;;;;5046887;28;20507;-71
2023/10/23 08:50:03;;;;;;;11.70;8.30;;;9.90;99.90;;;;;;5048754;28;20447;-70
2023/10/23 08:52:56;;;;;;;8.93;5.40;;;9.90;99.90;;;;;;5045533;28;20475;-71
2023/10/23 08:55:44;;;;;;;12.50;5.70;;;10.00;99.90;;;;;;5040521;28;20461;-71
2023/10/23 08:58:32;;;;;;;11.80;5.83;;;10.10;99.90;;;;;;5038757;28;20424;-70
2023/10/23 09:01:18;;;;;;;5.73;3.90;;;10.20;99.90;;;;;;5045800;28;20601;-70
2023/10/23 09:04:04;;;;;;;6.27;4.03;;;10.40;99.90;;;;;;5050314;28;20902;-71
2023/10/23 09:06:52;;;;;;;7.73;5.17;;;10.60;99.90;;;;;;5053204;28;20470;-72
2023/10/23 09:09:37;;;;;;;12.13;6.40;;;10.70;99.90;;;;;;5040578;28;20586;-70
2023/10/23 09:12:43;;;;;;;6.40;5.70;;;10.90;99.90;;;;;;5041515;28;20511;-70
2023/10/23 09:15:29;;;;;;;11.43;5.90;;;11.00;99.90;;;;;;5043264;28;20520;-70
2023/10/23 09:18:14;;;;;;;13.90;5.00;;;11.10;99.90;;;;;;5051656;28;20473;-71
2023/10/23 09:21:00;;;;;;;6.87;5.07;;;11.20;99.90;;;;;;5063728;28;20457;-70
2023/10/23 09:23:54;;;;;;;11.00;5.20;;;11.30;99.90;;;;;;5050553;28;20413;-70
2023/10/23 09:26:39;;;;;;;8.57;5.10;;;11.50;99.90;;;;;;5045599;28;20445;-70
2023/10/23 09:29:28;;;;;;;10.93;4.50;;;11.60;99.90;;;;;;5042515;28;20492;-69
2023/10/23 09:32:14;;;;;;;8.93;3.97;;;11.70;99.90;;;;;;5055045;28;20521;-69
2023/10/23 09:35:00;;;;;;;19.53;4.47;;;11.80;99.90;;;;;;5054162;28;20425;-69
2023/10/23 09:37:46;;;;;;;7.03;3.90;;;11.90;99.90;;;;;;5042484;28;20460;-69
2023/10/23 09:40:32;;;;;;;8.97;3.57;;;12.00;99.90;;;;;;5056363;28;20420;-69
2023/10/23 09:43:20;;;;;;;7.37;3.07;;;12.10;99.90;;;;;;5042431;28;20411;-70
2023/10/23 09:46:08;;;;;;;5.13;2.87;;;12.20;99.90;;;;;;5044514;28;20511;-71
2023/10/23 09:48:59;;;;;;;8.20;3.13;;;12.40;99.90;;;;;;5049667;28;20935;-71
2023/10/23 09:51:49;;;;;;;5.10;2.63;;;12.50;99.90;;;;;;5048135;28;20541;-71
2023/10/23 09:54:39;;;;;;;5.43;2.93;;;12.60;99.90;;;;;;5055781;28;20441;-70
2023/10/23 09:57:32;;;;;;;5.00;2.80;;;12.70;99.90;;;;;;5046235;28;20474;-70
2023/10/23 10:00:19;;;;;;;5.50;2.57;;;12.80;99.90;;;;;;5041170;28;20498;-70
2023/10/23 10:03:12;;;;;;;7.43;2.30;;;12.90;99.90;;;;;;5060984;28;20927;-70
2023/10/23 10:06:02;;;;;;;12.30;2.43;;;13.10;99.90;;;;;;5037678;28;20482;-70
2023/10/23 10:08:51;;;;;;;4.70;1.67;;;13.20;99.90;;;;;;5042552;28;20552;-71
2023/10/23 10:11:38;;;;;;;12.03;2.43;;;13.30;99.90;;;;;;5053003;28;20909;-71
2023/10/23 10:14:25;;;;;;;5.50;2.20;;;13.30;99.90;;;;;;5045398;28;20421;-71
2023/10/23 10:17:11;;;;;;;5.67;2.00;;;13.50;99.90;;;;;;5054596;28;20438;-70
2023/10/23 10:20:02;;;;;;;4.33;2.03;;;13.50;99.90;;;;;;5050126;28;20812;-71
2023/10/23 10:22:55;;;;;;;3.63;1.90;;;13.60;99.90;;;;;;5040032;28;20944;-70
2023/10/23 10:25:43;;;;;;;11.17;2.17;;;13.60;99.90;;;;;;5051300;28;20960;-70
2023/10/23 10:28:28;;;;;;;6.40;2.13;;;13.70;99.90;;;;;;5046539;28;20533;-71
2023/10/23 10:31:14;;;;;;;4.00;1.60;;;13.80;99.90;;;;;;5055055;28;20554;-70
2023/10/23 10:34:00;;;;;;;7.90;2.60;;;13.90;99.90;;;;;;5050270;28;20445;-71
2023/10/23 10:36:48;;;;;;;8.40;2.30;;;13.90;99.90;;;;;;5043348;28;20498;-70
2023/10/23 10:40:04;;;;;;;4.63;1.97;;;14.00;99.90;;;;;;5056810;28;20420;-71
2023/10/23 10:42:51;;;;;;;4.03;1.73;;;14.00;99.90;;;;;;5051917;28;20422;-71
2023/10/23 10:45:43;;;;;;;5.33;1.67;;;14.00;99.90;;;;;;5047318;28;20509;-70
2023/10/23 10:48:41;;;;;;;9.07;2.00;;;14.10;99.90;;;;;;5056195;28;20438;-70
2023/10/23 10:51:29;;;;;;;5.63;2.50;;;14.20;99.90;;;;;;5045384;28;20520;-70
2023/10/23 10:54:17;;;;;;;5.50;1.37;;;14.20;99.90;;;;;;5042698;28;20440;-70
2023/10/23 10:57:03;;;;;;;3.50;1.23;;;14.30;99.90;;;;;;5035481;28;20870;-70
2023/10/23 10:59:55;;;;;;;5.10;1.20;;;14.30;99.90;;;;;;5040632;28;20419;-70
2023/10/23 11:02:40;;;;;;;12.00;1.97;;;14.30;99.90;;;;;;5031819;28;20415;-70
2023/10/23 11:05:27;;;;;;;6.33;1.80;;;14.40;99.90;;;;;;5025811;28;20475;-70
2023/10/23 11:08:12;;;;;;;5.37;1.80;;;14.40;99.90;;;;;;5028669;28;20442;-71
2023/10/23 11:11:02;;;;;;;4.03;1.43;;;14.50;99.90;;;;;;5029980;28;20452;-70
2023/10/23 11:13:48;;;;;;;4.67;1.60;;;14.50;99.90;;;;;;5026300;28;20484;-71
2023/10/23 11:16:34;;;;;;;4.73;1.53;;;14.60;99.90;;;;;;5034025;28;20475;-70
2023/10/23 11:19:20;;;;;;;5.40;2.10;;;14.60;99.90;;;;;;5040133;28;20462;-71
2023/10/23 11:22:09;;;;;;;8.00;2.30;;;14.60;99.90;;;;;;5028382;28;20521;-70
2023/10/23 11:24:54;;;;;;;11.40;2.10;;;14.70;99.90;;;;;;5050432;28;21013;-69
2023/10/23 11:27:42;;;;;;;6.00;1.60;;;14.80;99.90;;;;;;5047780;28;21000;-69
2023/10/23 11:30:29;;;;;;;6.70;1.50;;;14.80;99.90;;;;;;5050059;28;20396;-70
2023/10/23 11:33:15;;;;;;;14.60;2.17;;;14.80;99.90;;;;;;5048127;28;20457;-71
2023/10/23 11:36:00;;;;;;;6.87;1.80;;;14.80;99.90;;;;;;5034158;28;20449;-70
2023/10/23 11:38:46;;;;;;;9.30;2.23;;;14.80;99.90;;;;;;5033682;28;20869;-70
2023/10/23 11:41:33;;;;;;;5.57;1.93;;;14.90;99.90;;;;;;5052378;28;20442;-70
2023/10/23 11:44:20;;;;;;;3.83;1.40;;;14.90;99.90;;;;;;5041475;28;20455;-70
2023/10/23 11:47:07;;;;;;;2.83;1.30;;;14.90;99.90;;;;;;5043789;28;20426;-71
2023/10/23 11:49:53;;;;;;;8.53;1.73;;;14.90;99.90;;;;;;5043099;28;20407;-71
2023/10/23 11:52:42;;;;;;;7.70;1.73;;;14.90;99.90;;;;;;5040630;28;20929;-71
2023/10/23 11:55:28;;;;;;;3.37;1.43;;;14.90;99.90;;;;;;5041630;28;20480;-71
2023/10/23 11:58:13;;;;;;;8.77;1.23;;;14.90;99.90;;;;;;5063427;28;20551;-70
2023/10/23 12:01:02;;;;;;;5.83;1.43;;;15.00;99.90;;;;;;5035536;28;20448;-72
2023/10/23 12:03:47;;;;;;;8.50;1.53;;;15.00;99.90;;;;;;5042166;28;21097;-70
2023/10/23 12:06:33;;;;;;;4.73;1.10;;;15.00;99.90;;;;;;5040424;28;20470;-70
2023/10/23 12:09:19;;;;;;;5.57;1.70;;;15.10;99.90;;;;;;5057368;28;21010;-70
2023/10/23 12:12:05;;;;;;;3.40;1.30;;;15.10;99.90;;;;;;5060272;28;20442;-70
2023/10/23 12:14:51;;;;;;;5.23;1.60;;;15.10;99.90;;;;;;5053095;28;20403;-70
2023/10/23 12:17:38;;;;;;;5.70;2.00;;;15.10;99.90;;;;;;5059157;28;20438;-70
2023/10/23 12:20:24;;;;;;;8.97;1.73;;;15.10;99.90;;;;;;5065392;28;20446;-71
2023/10/23 12:23:09;;;;;;;10.50;1.80;;;15.00;99.90;;;;;;5048951;28;20867;-70
2023/10/23 12:25:56;;;;;;;4.87;1.43;;;15.00;99.90;;;;;;5056055;28;20398;-70
2023/10/23 12:28:41;;;;;;;9.83;1.80;;;15.10;99.90;;;;;;5053503;28;20420;-70
2023/10/23 12:31:28;;;;;;;10.00;2.27;;;15.10;99.90;;;;;;5049769;28;20396;-70
2023/10/23 12:34:15;;;;;;;5.37;1.13;;;15.10;99.90;;;;;;5057768;28;20470;-70
2023/10/23 12:37:00;;;;;;;5.97;1.53;;;15.10;99.90;;;;;;5049862;28;20417;-71
2023/10/23 12:39:46;;;;;;;4.67;1.30;;;15.10;99.90;;;;;;5063664;28;20402;-70
2023/10/23 12:42:32;;;;;;;4.77;1.47;;;15.10;99.90;;;;;;5054359;28;20422;-70
2023/10/23 12:45:18;;;;;;;6.30;1.47;;;15.10;99.90;;;;;;5065275;28;20453;-70
2023/10/23 12:48:04;;;;;;;9.50;1.77;;;15.20;99.90;;;;;;5042396;28;21115;-70
2023/10/23 12:50:51;;;;;;;6.10;1.83;;;15.20;99.90;;;;;;5054623;28;20439;-70
2023/10/23 12:53:38;;;;;;;4.70;1.50;;;15.20;99.90;;;;;;5054592;28;20469;-70
2023/10/23 12:56:23;;;;;;;5.43;1.83;;;15.20;99.90;;;;;;5058497;28;20429;-70
2023/10/23 12:59:09;;;;;;;4.17;1.40;;;15.30;99.90;;;;;;5049380;28;20414;-70
2023/10/23 13:01:55;;;;;;;2.13;0.93;;;15.30;99.90;;;;;;5036947;28;20447;-70
2023/10/23 13:04:41;;;;;;;4.53;1.50;;;15.30;99.90;;;;;;5042012;28;20492;-71
2023/10/23 13:07:28;;;;;;;3.30;1.37;;;15.40;99.90;;;;;;5048294;28;20540;-70
2023/10/23 13:10:13;;;;;;;3.27;0.90;;;15.40;99.90;;;;;;5056534;28;20809;-70
2023/10/23 13:12:59;;;;;;;2.60;1.40;;;15.40;99.90;;;;;;5058517;28;20449;-70
2023/10/23 13:15:45;;;;;;;4.70;1.47;;;15.40;99.90;;;;;;5035128;28;20448;-69
2023/10/23 13:18:31;;;;;;;4.23;1.23;;;15.50;99.90;;;;;;5052222;28;20855;-70
2023/10/23 13:21:16;;;;;;;3.07;1.20;;;15.50;99.90;;;;;;5057285;28;20460;-70
2023/10/23 13:24:04;;;;;;;4.57;1.50;;;15.40;99.90;;;;;;5057809;28;20414;-70
2023/10/23 13:26:50;;;;;;;8.13;1.63;;;15.40;99.90;;;;;;5055421;28;20802;-71
2023/10/23 13:29:35;;;;;;;5.57;1.50;;;15.40;99.90;;;;;;5053324;28;20871;-70
2023/10/23 13:32:21;;;;;;;3.20;1.27;;;15.40;99.90;;;;;;5049002;28;20495;-70
2023/10/23 13:35:08;;;;;;;6.43;1.60;;;15.30;99.90;;;;;;5046256;28;20566;-70
2023/10/23 13:37:53;;;;;;;3.17;1.43;;;15.30;99.90;;;;;;5052100;28;20985;-70
2023/10/23 13:40:40;;;;;;;3.60;1.57;;;15.20;99.90;;;;;;5050817;28;20945;-70
2023/10/23 13:43:26;;;;;;;3.67;1.33;;;15.20;99.90;;;;;;5053505;28;20533;-69
2023/10/23 13:46:11;;;;;;;3.10;1.30;;;15.20;99.90;;;;;;5047370;28;20439;-69
2023/10/23 13:48:58;;;;;;;6.07;1.30;;;15.20;99.90;;;;;;5048579;28;20477;-70
2023/10/23 13:51:44;;;;;;;2.90;1.30;;;15.20;99.90;;;;;;5054056;28;20460;-70
2023/10/23 13:54:30;;;;;;;2.30;1.20;;;15.20;99.90;;;;;;5042955;28;20489;-70
2023/10/23 13:57:17;;;;;;;3.63;1.20;;;15.10;99.90;;;;;;5051495;28;20441;-70
2023/10/23 14:00:04;;;;;;;4.23;1.10;;;15.20;99.90;;;;;;5054669;28;20398;-70
2023/10/23 14:02:49;;;;;;;3.10;1.17;;;15.10;99.90;;;;;;5043271;28;20434;-70
2023/10/23 14:05:37;;;;;;;4.23;1.10;;;15.10;99.90;;;;;;5048138;28;20415;-70
2023/10/23 14:08:22;;;;;;;2.13;1.30;;;15.10;99.90;;;;;;5040491;28;20425;-70
2023/10/23 14:11:08;;;;;;;2.53;1.13;;;15.10;99.90;;;;;;5056364;28;20993;-70
2023/10/23 14:13:55;;;;;;;6.23;2.10;;;15.20;99.90;;;;;;5058504;28;20438;-70
2023/10/23 14:16:41;;;;;;;4.57;1.40;;;15.10;99.90;;;;;;5066013;28;20813;-70
2023/10/23 14:19:26;;;;;;;6.00;1.53;;;15.10;99.90;;;;;;5046652;28;20953;-70
2023/10/23 14:22:12;;;;;;;5.30;1.67;;;15.10;99.90;;;;;;5057241;28;20405;-70
2023/10/23 14:24:58;;;;;;;2.80;1.40;;;15.00;99.90;;;;;;5045409;28;20424;-69
2023/10/23 14:27:44;;;;;;;6.37;1.87;;;15.00;99.90;;;;;;5055677;28;20975;-72
2023/10/23 14:30:33;;;;;;;5.10;1.40;;;14.90;99.90;;;;;;5038426;28;20485;-70
2023/10/23 14:33:19;;;;;;;4.60;1.67;;;14.80;99.90;;;;;;5038042;28;21010;-71